Time;durP1;ratioP1;P1;durP2;ratioP2;P2;SDS_P1;SDS_P2;PMS_P1;PMS_P2;Temp;Humidity;BMP_temperature;BMP_pressure;BME280_temperature;BME280_humidity;BME280_pressure;Samples;Min_cycle;Max_cycle;Signal;HPM_P1;HPM_P2
2021/04/27 00:02:20;;;;;;;11.70;6.03;;;5.80;99.90;;;;;;5015121;28;20176;-64
2021/04/27 00:04:46;;;;;;;9.50;6.07;;;5.80;99.90;;;;;;5014942;28;20545;-63
2021/04/27 00:07:12;;;;;;;9.33;5.20;;;6.00;99.90;;;;;;5015111;28;20290;-63
2021/04/27 00:09:38;;;;;;;7.40;5.80;;;5.70;99.90;;;;;;5014687;28;20180;-64
2021/04/27 00:12:05;;;;;;;9.73;5.80;;;5.70;99.90;;;;;;5014767;28;20255;-64
2021/04/27 00:14:32;;;;;;;7.77;5.20;;;5.70;99.90;;;;;;5014882;28;20172;-64
2021/04/27 00:16:58;;;;;;;7.67;5.47;;;5.60;99.90;;;;;;5014951;28;20182;-64
2021/04/27 00:19:23;;;;;;;6.53;5.63;;;5.60;99.90;;;;;;5014651;28;20196;-63
2021/04/27 00:21:49;;;;;;;8.53;5.27;;;5.60;99.90;;;;;;5014417;28;20542;-63
2021/04/27 00:24:15;;;;;;;8.90;5.27;;;5.50;99.90;;;;;;5014915;28;20180;-64
2021/04/27 00:26:40;;;;;;;7.37;5.80;;;5.50;99.90;;;;;;5014802;28;20736;-63
2021/04/27 00:29:06;;;;;;;7.70;5.77;;;5.40;99.90;;;;;;5014612;28;20212;-63
2021/04/27 00:31:33;;;;;;;11.63;6.30;;;5.30;99.90;;;;;;5014574;28;20175;-63
2021/04/27 00:34:00;;;;;;;6.67;5.53;;;5.20;99.90;;;;;;5014613;28;20202;-63
2021/04/27 00:36:26;;;;;;;11.70;6.20;;;5.10;99.90;;;;;;5014680;28;20259;-63
2021/04/27 00:38:52;;;;;;;9.27;5.83;;;5.10;99.90;;;;;;5014417;28;20207;-63
2021/04/27 00:41:18;;;;;;;6.67;5.37;;;5.10;99.90;;;;;;5012625;28;20180;-63
2021/04/27 00:43:44;;;;;;;8.80;5.80;;;5.00;99.90;;;;;;5014532;28;20183;-63
2021/04/27 00:46:10;;;;;;;8.47;5.80;;;4.90;99.90;;;;;;5014266;28;20203;-63
2021/04/27 00:48:36;;;;;;;11.37;6.60;;;4.90;99.90;;;;;;5014275;28;20207;-63
2021/04/27 00:51:02;;;;;;;6.97;4.87;;;5.00;99.90;;;;;;5012876;28;20176;-63
2021/04/27 00:53:28;;;;;;;8.23;5.30;;;5.10;99.90;;;;;;5013954;28;20251;-63
2021/04/27 00:55:54;;;;;;;7.23;5.70;;;5.10;99.90;;;;;;5014542;28;20242;-63
2021/04/27 00:58:21;;;;;;;9.37;6.47;;;5.20;99.90;;;;;;5013926;28;20626;-63
2021/04/27 01:00:47;;;;;;;8.43;5.47;;;5.20;99.90;;;;;;5013631;28;20223;-63
2021/04/27 01:03:13;;;;;;;7.30;5.77;;;5.20;99.90;;;;;;5014197;28;20527;-63
2021/04/27 01:05:40;;;;;;;8.07;5.60;;;5.10;99.90;;;;;;5013750;28;20227;-63
2021/04/27 01:08:21;;;;;;;6.87;5.27;;;5.10;99.90;;;;;;5013970;28;20250;-63
2021/04/27 01:11:16;;;;;;;5.70;4.83;;;5.00;99.90;;;;;;5013602;28;20180;-63
2021/04/27 01:14:03;;;;;;;6.30;4.80;;;4.90;99.90;;;;;;5013768;28;20672;-63
2021/04/27 01:16:31;;;;;;;8.20;4.70;;;4.90;99.90;;;;;;5013902;28;20245;-63
2021/04/27 01:18:57;;;;;;;12.67;5.23;;;4.90;99.90;;;;;;5013470;28;20255;-63
2021/04/27 01:21:26;;;;;;;7.00;4.97;;;4.90;99.90;;;;;;5013476;28;20179;-63
2021/04/27 01:24:21;;;;;;;10.17;4.87;;;5.00;99.90;;;;;;5012782;28;20262;-63
2021/04/27 01:26:53;;;;;;;12.77;6.53;;;5.00;99.90;;;;;;5013567;28;20204;-63
2021/04/27 01:29:27;;;;;;;6.47;4.33;;;4.90;99.90;;;;;;5013444;28;20196;-63
2021/04/27 01:31:54;;;;;;;6.53;4.77;;;4.90;99.90;;;;;;5013495;28;20196;-63
2021/04/27 01:34:24;;;;;;;7.83;5.23;;;5.00;99.90;;;;;;5013281;28;20631;-63
2021/04/27 01:36:52;;;;;;;7.73;5.23;;;5.00;99.90;;;;;;5013274;28;20184;-63
2021/04/27 01:39:19;;;;;;;5.80;4.47;;;4.90;99.90;;;;;;5013250;28;20589;-63
2021/04/27 01:41:46;;;;;;;6.53;5.10;;;4.90;99.90;;;;;;5012856;28;20257;-63
2021/04/27 01:44:13;;;;;;;6.80;4.97;;;4.90;99.90;;;;;;5013403;28;20176;-63
2021/04/27 01:46:40;;;;;;;6.57;4.60;;;4.80;99.90;;;;;;5013031;28;20204;-63
2021/04/27 01:49:06;;;;;;;7.73;5.07;;;4.80;99.90;;;;;;5013007;28;20207;-63
2021/04/27 01:51:33;;;;;;;5.40;4.80;;;4.80;99.90;;;;;;5012100;28;20182;-63
2021/04/27 01:53:58;;;;;;;6.30;4.80;;;4.70;99.90;;;;;;5013132;28;20254;-63
2021/04/27 01:56:24;;;;;;;11.10;5.30;;;4.60;99.90;;;;;;5012987;28;20604;-63
2021/04/27 01:58:50;;;;;;;8.00;5.20;;;4.70;99.90;;;;;;5013005;28;20282;-63
2021/04/27 02:01:16;;;;;;;6.70;4.53;;;4.60;99.90;;;;;;5012520;28;20673;-66
2021/04/27 02:03:47;;;;;;;7.37;4.50;;;4.60;99.90;;;;;;5014290;28;20187;-66
2021/04/27 02:06:13;;;;;;;6.37;4.20;;;4.70;99.90;;;;;;5013835;28;20689;-64
2021/04/27 02:08:40;;;;;;;8.23;4.57;;;4.70;99.90;;;;;;5014030;28;20180;-65
2021/04/27 02:11:06;;;;;;;4.97;3.50;;;4.70;99.90;;;;;;5013396;28;20180;-64
2021/04/27 02:13:33;;;;;;;7.07;3.93;;;4.70;99.90;;;;;;5014054;28;20665;-66
2021/04/27 02:16:00;;;;;;;5.13;3.77;;;4.80;99.90;;;;;;5013581;28;20203;-66
2021/04/27 02:18:38;;;;;;;5.23;4.20;;;4.80;99.90;;;;;;5013942;28;20670;-68
2021/04/27 02:21:06;;;;;;;7.80;3.80;;;4.80;99.90;;;;;;5013465;28;20186;-68
2021/04/27 02:23:33;;;;;;;5.47;3.73;;;4.80;99.90;;;;;;5013063;28;20323;-67
2021/04/27 02:25:59;;;;;;;5.43;3.70;;;4.90;99.90;;;;;;5013710;28;20214;-68
2021/04/27 02:28:26;;;;;;;7.00;3.50;;;4.80;99.90;;;;;;5013794;28;20215;-67
2021/04/27 02:30:53;;;;;;;4.97;3.67;;;4.90;99.90;;;;;;5013420;28;21551;-67
2021/04/27 02:33:20;;;;;;;9.50;3.73;;;4.80;99.90;;;;;;5013964;28;20164;-69
2021/04/27 02:35:48;;;;;;;4.53;3.30;;;4.90;99.90;;;;;;5013447;28;20537;-67
2021/04/27 02:38:17;;;;;;;4.60;3.67;;;4.80;99.90;;;;;;5013872;28;20908;-69
2021/04/27 02:40:43;;;;;;;4.87;3.73;;;4.90;99.90;;;;;;5013253;28;20784;-68
2021/04/27 02:43:09;;;;;;;7.63;4.43;;;4.80;99.90;;;;;;5013589;28;20172;-69
2021/04/27 02:45:34;;;;;;;4.80;3.80;;;4.80;99.90;;;;;;5013431;28;20203;-67
2021/04/27 02:48:12;;;;;;;4.17;3.50;;;4.80;99.90;;;;;;5013450;28;20192;-66
2021/04/27 02:50:40;;;;;;;5.60;3.60;;;4.80;99.90;;;;;;5012211;28;20187;-68
2021/04/27 02:53:06;;;;;;;3.97;2.83;;;4.80;99.90;;;;;;5013345;28;20164;-66
2021/04/27 02:55:32;;;;;;;4.43;3.30;;;4.70;99.90;;;;;;5013468;28;20180;-68
2021/04/27 02:57:58;;;;;;;3.93;3.30;;;4.70;99.90;;;;;;5012813;28;20200;-69
2021/04/27 03:00:24;;;;;;;7.57;3.10;;;4.80;99.90;;;;;;5011690;28;20172;-67
2021/04/27 03:02:50;;;;;;;4.83;3.30;;;4.80;99.90;;;;;;5012761;28;20176;-70
2021/04/27 03:05:16;;;;;;;4.87;3.30;;;4.80;99.90;;;;;;5013127;28;20180;-66
2021/04/27 03:07:41;;;;;;;4.43;4.03;;;4.70;99.90;;;;;;5013146;28;20207;-67
2021/04/27 03:10:08;;;;;;;4.80;3.30;;;4.60;99.90;;;;;;5012415;28;20268;-67
2021/04/27 03:12:33;;;;;;;5.03;3.43;;;4.60;99.90;;;;;;5013244;28;20696;-69
2021/04/27 03:15:01;;;;;;;12.27;3.23;;;4.60;99.90;;;;;;5013266;28;20176;-66
2021/04/27 03:17:26;;;;;;;5.97;3.37;;;4.50;99.90;;;;;;5013051;28;20694;-67
2021/04/27 03:19:52;;;;;;;4.73;3.40;;;4.50;99.90;;;;;;5012357;28;20180;-67
2021/04/27 03:22:18;;;;;;;5.00;3.67;;;4.50;99.90;;;;;;5013073;28;20172;-68
2021/04/27 03:24:44;;;;;;;4.03;3.27;;;4.40;99.90;;;;;;5011670;28;20202;-69
2021/04/27 03:27:09;;;;;;;3.67;3.37;;;4.30;99.90;;;;;;5013072;28;20292;-65
2021/04/27 03:29:35;;;;;;;4.70;3.40;;;4.30;99.90;;;;;;5013206;28;20180;-68
2021/04/27 03:32:00;;;;;;;6.30;3.63;;;4.30;99.90;;;;;;5012890;28;20668;-66
2021/04/27 03:34:26;;;;;;;3.57;3.27;;;4.20;99.90;;;;;;5012825;28;20172;-67
2021/04/27 03:36:52;;;;;;;10.00;3.60;;;4.20;99.90;;;;;;5010687;28;20180;-68
2021/04/27 03:39:17;;;;;;;3.83;3.20;;;4.20;99.90;;;;;;5012645;28;20622;-68
2021/04/27 03:41:43;;;;;;;5.03;3.33;;;4.30;99.90;;;;;;5011718;28;20223;-66
2021/04/27 03:44:09;;;;;;;4.13;3.77;;;4.30;99.90;;;;;;5013214;28;20549;-67
2021/04/27 03:46:34;;;;;;;4.67;3.77;;;4.30;99.90;;;;;;5011905;28;20216;-66
2021/04/27 03:49:00;;;;;;;5.53;3.13;;;4.20;99.90;;;;;;5012846;28;20195;-66
2021/04/27 03:51:25;;;;;;;3.47;3.10;;;4.30;99.90;;;;;;5012146;28;20264;-66
2021/04/27 03:53:51;;;;;;;4.47;3.10;;;4.30;99.90;;;;;;5012202;28;20184;-66
2021/04/27 03:56:16;;;;;;;5.67;3.37;;;4.30;99.90;;;;;;5012650;28;20172;-65
2021/04/27 03:58:42;;;;;;;4.73;4.20;;;4.20;99.90;;;;;;5011222;28;20203;-65
2021/04/27 04:01:08;;;;;;;4.13;3.13;;;4.20;99.90;;;;;;5011167;28;20685;-63
2021/04/27 04:03:38;;;;;;;4.23;3.37;;;4.20;99.90;;;;;;5011354;28;20259;-63
2021/04/27 04:06:04;;;;;;;5.10;3.30;;;4.20;99.90;;;;;;5011007;28;20674;-65
2021/04/27 04:08:30;;;;;;;4.13;3.13;;;4.20;99.90;;;;;;5011382;28;20202;-65
2021/04/27 04:10:55;;;;;;;3.10;2.80;;;4.30;99.90;;;;;;5011036;28;20180;-63
2021/04/27 04:13:21;;;;;;;4.43;3.30;;;4.30;99.90;;;;;;5010852;28;20184;-63
2021/04/27 04:15:46;;;;;;;4.47;3.20;;;4.30;99.90;;;;;;5014279;28;20176;-65
2021/04/27 04:18:12;;;;;;;4.07;2.97;;;4.30;99.90;;;;;;5014495;28;20219;-62
2021/04/27 04:20:38;;;;;;;7.20;3.57;;;4.30;99.90;;;;;;5014610;28;20525;-63
2021/04/27 04:23:05;;;;;;;4.27;3.10;;;4.30;99.90;;;;;;5014695;28;20172;-63
2021/04/27 04:25:31;;;;;;;5.07;2.93;;;4.20;99.90;;;;;;5014710;28;20648;-63
2021/04/27 04:27:56;;;;;;;6.20;3.23;;;4.10;99.90;;;;;;5014440;28;20216;-63
2021/04/27 04:30:24;;;;;;;4.83;3.10;;;4.10;99.90;;;;;;5014606;28;20595;-63
2021/04/27 04:32:50;;;;;;;5.53;4.27;;;4.10;99.90;;;;;;5014411;28;20184;-64
2021/04/27 04:35:19;;;;;;;4.97;3.30;;;4.20;99.90;;;;;;5014716;28;20180;-63
2021/04/27 04:37:44;;;;;;;4.90;3.30;;;4.20;99.90;;;;;;5014309;28;20223;-63
2021/04/27 04:40:11;;;;;;;7.87;3.23;;;4.20;99.90;;;;;;5014357;28;20532;-63
2021/04/27 04:42:37;;;;;;;5.83;3.30;;;4.20;99.90;;;;;;5014042;28;20259;-63
2021/04/27 04:45:08;;;;;;;4.90;3.13;;;4.30;99.90;;;;;;5014288;28;20657;-63
2021/04/27 04:47:34;;;;;;;5.23;3.63;;;4.40;99.90;;;;;;5013129;28;20211;-63
2021/04/27 04:50:01;;;;;;;3.23;2.93;;;4.50;99.90;;;;;;5013926;28;20704;-63
2021/04/27 04:52:27;;;;;;;6.23;3.00;;;4.70;99.90;;;;;;5014404;28;20192;-63
2021/04/27 04:54:53;;;;;;;4.07;2.93;;;4.70;99.90;;;;;;5014122;28;20222;-64
2021/04/27 04:57:19;;;;;;;3.43;3.00;;;4.80;99.90;;;;;;5014176;28;20176;-62
2021/04/27 04:59:45;;;;;;;4.50;2.90;;;4.90;99.90;;;;;;5013665;28;20272;-63
2021/04/27 05:02:11;;;;;;;4.00;3.20;;;4.90;99.90;;;;;;5014324;28;20196;-63
2021/04/27 05:04:36;;;;;;;3.53;2.67;;;5.00;99.90;;;;;;5013799;28;20195;-65
2021/04/27 05:07:06;;;;;;;6.70;3.27;;;5.10;99.90;;;;;;5014072;28;20208;-63
2021/04/27 05:09:32;;;;;;;3.40;3.10;;;5.10;99.90;;;;;;5011521;28;20187;-62
2021/04/27 05:11:59;;;;;;;3.80;3.00;;;5.10;99.90;;;;;;5013615;28;20180;-65
2021/04/27 05:14:24;;;;;;;4.90;2.87;;;5.10;99.90;;;;;;5013379;28;20180;-63
2021/04/27 05:16:50;;;;;;;5.73;3.30;;;5.10;99.90;;;;;;5013828;28;20176;-64
2021/04/27 05:19:16;;;;;;;3.33;3.03;;;5.10;99.90;;;;;;5013484;28;20200;-65
2021/04/27 05:21:43;;;;;;;4.40;2.97;;;5.20;99.90;;;;;;5013237;28;20298;-64
2021/04/27 05:24:09;;;;;;;3.80;2.63;;;5.30;99.90;;;;;;5013560;28;20184;-65
2021/04/27 05:26:35;;;;;;;3.10;2.80;;;5.40;99.90;;;;;;5012908;28;20665;-65
2021/04/27 05:29:00;;;;;;;4.80;2.97;;;5.50;99.90;;;;;;5013230;28;20219;-65
2021/04/27 05:31:26;;;;;;;4.97;3.13;;;5.50;99.90;;;;;;5013135;28;20181;-64
2021/04/27 05:33:52;;;;;;;3.77;3.03;;;5.60;99.90;;;;;;5013246;28;20181;-65
2021/04/27 05:36:17;;;;;;;3.03;2.73;;;5.70;99.90;;;;;;5013553;28;20180;-65
2021/04/27 05:38:43;;;;;;;4.27;2.70;;;5.90;99.90;;;;;;5013140;28;20200;-65
2021/04/27 05:41:09;;;;;;;4.43;3.00;;;6.00;99.90;;;;;;5013134;28;20172;-65
2021/04/27 05:43:34;;;;;;;2.90;2.60;;;6.00;99.90;;;;;;5012923;28;20180;-65
2021/04/27 05:46:00;;;;;;;5.40;2.60;;;6.10;99.90;;;;;;5013311;28;20690;-65
2021/04/27 05:48:26;;;;;;;8.47;3.00;;;6.30;99.90;;;;;;5012085;28;20196;-65
2021/04/27 05:50:51;;;;;;;5.00;2.83;;;6.60;99.90;;;;;;5012819;28;20179;-64
2021/04/27 05:53:17;;;;;;;5.53;2.70;;;6.90;99.90;;;;;;5012848;28;20180;-64
2021/04/27 05:55:43;;;;;;;8.10;2.80;;;7.20;99.90;;;;;;5012980;28;20204;-64
2021/04/27 05:58:09;;;;;;;2.63;2.37;;;7.60;99.90;;;;;;5012905;28;20195;-62
2021/04/27 06:00:36;;;;;;;5.20;2.80;;;8.00;99.90;;;;;;5012596;28;20223;-62
2021/04/27 06:03:02;;;;;;;4.30;2.63;;;8.40;99.90;;;;;;5012678;28;20271;-63
2021/04/27 06:05:28;;;;;;;3.87;2.40;;;8.70;99.90;;;;;;5012608;28;20176;-62
2021/04/27 06:07:53;;;;;;;2.93;2.53;;;8.80;99.90;;;;;;5012417;28;20727;-65
2021/04/27 06:10:19;;;;;;;2.63;2.43;;;9.10;99.90;;;;;;5012529;28;20176;-62
2021/04/27 06:12:45;;;;;;;6.13;2.43;;;9.40;99.90;;;;;;5012593;28;20184;-63
2021/04/27 06:15:12;;;;;;;3.77;2.53;;;9.70;99.90;;;;;;5012859;28;20191;-63
2021/04/27 06:17:38;;;;;;;4.70;2.50;;;9.90;99.90;;;;;;5012148;28;20246;-62
2021/04/27 06:20:05;;;;;;;3.80;2.47;;;10.10;99.90;;;;;;5012215;28;20748;-62
2021/04/27 06:22:31;;;;;;;4.77;2.33;;;10.20;99.90;;;;;;5012551;28;20677;-65
2021/04/27 06:24:56;;;;;;;3.80;2.37;;;10.20;99.90;;;;;;5012417;28;20186;-63
2021/04/27 06:27:24;;;;;;;6.33;2.43;;;10.10;99.90;;;;;;5012253;28;20219;-63
2021/04/27 06:29:50;;;;;;;4.40;2.50;;;10.20;99.90;;;;;;5011926;28;20188;-62
2021/04/27 06:32:16;;;;;;;3.83;2.20;;;10.20;99.90;;;;;;5012365;28;20176;-63
2021/04/27 06:34:42;;;;;;;5.20;2.30;;;10.30;99.90;;;;;;5012019;28;20272;-63
2021/04/27 06:37:07;;;;;;;3.90;2.10;;;10.40;99.90;;;;;;5012349;28;20642;-62
2021/04/27 06:39:33;;;;;;;4.37;2.67;;;10.40;99.90;;;;;;5011764;28;20184;-63
2021/04/27 06:41:59;;;;;;;3.47;2.27;;;10.70;99.90;;;;;;5012103;28;20187;-63
2021/04/27 06:44:24;;;;;;;5.43;2.60;;;11.00;99.90;;;;;;5011938;28;20728;-63
2021/04/27 06:46:50;;;;;;;4.27;2.67;;;11.40;99.90;;;;;;5011056;28;20200;-65
2021/04/27 06:49:16;;;;;;;4.63;2.50;;;11.70;99.90;;;;;;5011728;28;20286;-64
2021/04/27 06:51:41;;;;;;;3.83;2.40;;;11.80;99.90;;;;;;5011581;28;20177;-63
2021/04/27 06:54:07;;;;;;;3.30;2.33;;;11.70;99.90;;;;;;5011876;28;20267;-62
2021/04/27 06:56:33;;;;;;;4.33;2.70;;;11.90;99.90;;;;;;5011765;28;20211;-62
2021/04/27 06:58:58;;;;;;;2.97;2.37;;;11.90;99.90;;;;;;5012090;28;20208;-63
2021/04/27 07:01:24;;;;;;;2.40;2.13;;;12.00;99.80;;;;;;5011397;28;20662;-63
2021/04/27 07:03:50;;;;;;;3.03;2.17;;;12.40;99.90;;;;;;5011723;28;20660;-63
2021/04/27 07:06:15;;;;;;;4.67;2.50;;;12.70;99.80;;;;;;5011524;28;20655;-63
2021/04/27 07:08:42;;;;;;;3.83;2.73;;;12.60;98.70;;;;;;5011583;28;20192;-62
2021/04/27 07:11:08;;;;;;;6.23;2.60;;;12.60;97.50;;;;;;5011352;28;20187;-62
2021/04/27 07:13:34;;;;;;;3.87;2.53;;;12.90;98.50;;;;;;5011748;28;20180;-63
2021/04/27 07:16:00;;;;;;;2.50;2.30;;;13.40;99.00;;;;;;5011549;28;20187;-65
2021/04/27 07:18:25;;;;;;;3.37;2.20;;;13.70;97.60;;;;;;5011610;28;20211;-63
2021/04/27 07:20:51;;;;;;;3.53;2.30;;;14.30;96.50;;;;;;5010958;28;20184;-62
2021/04/27 07:23:17;;;;;;;4.10;2.20;;;14.30;95.30;;;;;;5011656;28;20183;-63
2021/04/27 07:25:43;;;;;;;3.23;2.40;;;14.60;95.10;;;;;;5011063;28;20211;-63
2021/04/27 07:28:08;;;;;;;5.20;2.70;;;14.70;93.90;;;;;;5011426;28;20203;-63
2021/04/27 07:30:36;;;;;;;3.43;2.47;;;14.40;92.90;;;;;;5010900;28;20195;-63
2021/04/27 07:33:02;;;;;;;4.23;2.30;;;14.10;92.80;;;;;;5011422;28;20168;-62
2021/04/27 07:35:28;;;;;;;2.40;2.20;;;13.70;92.00;;;;;;5011099;28;20172;-66
2021/04/27 07:37:54;;;;;;;3.70;2.10;;;13.70;92.10;;;;;;5011423;28;20202;-63
2021/04/27 07:40:20;;;;;;;5.23;2.50;;;14.00;93.80;;;;;;5010920;28;20180;-63
2021/04/27 07:42:46;;;;;;;2.40;2.20;;;14.20;92.90;;;;;;5011377;28;20191;-63
2021/04/27 07:45:14;;;;;;;3.93;2.40;;;14.60;93.30;;;;;;5011233;28;20650;-64
2021/04/27 07:47:40;;;;;;;4.13;2.50;;;14.30;91.30;;;;;;5010201;28;20701;-63
2021/04/27 07:50:07;;;;;;;2.30;2.10;;;14.30;92.60;;;;;;5012799;28;20172;-62
2021/04/27 07:52:34;;;;;;;5.53;2.13;;;14.60;92.30;;;;;;5015308;28;20168;-64
2021/04/27 07:55:00;;;;;;;4.93;2.13;;;14.80;91.10;;;;;;5015247;28;20207;-64
2021/04/27 07:57:26;;;;;;;3.67;2.47;;;15.00;89.60;;;;;;5015362;28;20188;-64
2021/04/27 07:59:52;;;;;;;4.10;2.27;;;14.90;89.40;;;;;;5014638;28;20237;-64
2021/04/27 08:02:17;;;;;;;2.90;2.43;;;14.50;88.10;;;;;;5015166;28;20172;-64
2021/04/27 08:04:45;;;;;;;5.50;1.90;;;14.40;88.80;;;;;;5014618;28;20605;-63
2021/04/27 08:07:11;;;;;;;3.37;2.03;;;14.20;89.80;;;;;;5015064;28;20291;-64
2021/04/27 08:09:36;;;;;;;3.70;2.50;;;14.30;87.00;;;;;;5014599;28;20591;-63
2021/04/27 08:12:02;;;;;;;2.77;2.23;;;14.70;91.10;;;;;;5014895;28;20165;-64
2021/04/27 08:14:28;;;;;;;4.00;2.30;;;15.20;89.10;;;;;;5014667;28;20215;-64
2021/04/27 08:16:53;;;;;;;4.13;2.50;;;15.50;89.10;;;;;;5015111;28;20660;-64
2021/04/27 08:19:19;;;;;;;2.83;2.50;;;15.60;87.60;;;;;;5014503;28;20196;-63
2021/04/27 08:21:45;;;;;;;2.87;2.43;;;15.50;82.00;;;;;;5014419;28;20176;-63
2021/04/27 08:24:11;;;;;;;3.83;2.50;;;15.20;85.20;;;;;;5014424;28;20654;-62
2021/04/27 08:26:36;;;;;;;3.03;2.23;;;15.60;88.20;;;;;;5014656;28;20231;-63
2021/04/27 08:29:02;;;;;;;4.13;2.57;;;16.00;85.70;;;;;;5014282;28;20729;-63
2021/04/27 08:31:28;;;;;;;6.07;2.30;;;16.20;86.40;;;;;;5014281;28;20552;-64
2021/04/27 08:33:54;;;;;;;4.07;2.70;;;16.40;86.00;;;;;;5014295;28;20184;-63
2021/04/27 08:36:19;;;;;;;2.57;2.20;;;16.50;84.90;;;;;;5013626;28;20227;-63
2021/04/27 08:38:45;;;;;;;3.30;2.30;;;16.50;83.30;;;;;;5014092;28;20227;-63
2021/04/27 08:41:11;;;;;;;4.63;2.23;;;16.90;86.20;;;;;;5014389;28;20553;-64
2021/04/27 08:43:37;;;;;;;3.90;2.10;;;17.20;85.60;;;;;;5014018;28;20268;-63
2021/04/27 08:46:03;;;;;;;3.07;2.43;;;16.90;79.90;;;;;;5014070;28;20196;-63
2021/04/27 08:48:29;;;;;;;3.20;2.33;;;16.90;83.80;;;;;;5013452;28;20200;-63
2021/04/27 08:50:55;;;;;;;4.53;2.40;;;17.10;81.20;;;;;;5013950;28;20533;-63
2021/04/27 08:53:21;;;;;;;8.30;2.42;;;17.30;81.70;;;;;;5014413;28;20171;-64
2021/04/27 08:55:47;;;;;;;4.60;2.60;;;17.70;81.70;;;;;;5013849;28;20641;-63
2021/04/27 08:58:14;;;;;;;3.38;2.45;;;17.60;79.90;;;;;;5014243;28;20216;-64
2021/04/27 09:00:41;;;;;;;6.47;2.58;;;17.70;77.70;;;;;;5012770;28;20185;-63
2021/04/27 09:03:08;;;;;;;3.85;2.33;;;17.80;78.30;;;;;;5013901;28;20206;-64
2021/04/27 09:05:36;;;;;;;4.05;2.22;;;18.30;78.30;;;;;;5013594;28;20206;-63
2021/04/27 09:08:03;;;;;;;4.03;2.47;;;18.60;76.30;;;;;;5013895;28;20270;-63
2021/04/27 09:10:31;;;;;;;3.33;2.22;;;18.80;77.70;;;;;;5013392;28;20557;-64
2021/04/27 09:12:58;;;;;;;5.68;2.22;;;19.20;76.00;;;;;;5013842;28;20180;-63
2021/04/27 09:15:30;;;;;;;3.05;2.22;;;19.20;74.70;;;;;;5013715;28;20230;-64
2021/04/27 09:17:56;;;;;;;6.43;2.75;;;18.90;73.70;;;;;;5013562;28;20674;-64
2021/04/27 09:20:22;;;;;;;3.75;2.95;;;18.90;73.00;;;;;;5013239;28;20180;-63
2021/04/27 09:22:48;;;;;;;5.65;2.35;;;18.50;69.90;;;;;;5013857;28;20547;-63
2021/04/27 09:25:14;;;;;;;4.00;2.17;;;18.70;75.50;;;;;;5013470;28;20241;-63
2021/04/27 09:27:48;;;;;;;5.95;2.50;;;19.30;73.90;;;;;;5012970;28;20211;-64
2021/04/27 09:30:21;;;;;;;4.18;2.50;;;19.20;71.30;;;;;;5070142;22;20752;-65
2021/04/27 09:33:04;;;;;;;5.80;2.38;;;19.50;71.00;;;;;;5072623;28;20173;-64
2021/04/27 09:35:39;;;;;;;4.55;2.15;;;19.30;68.00;;;;;;5073242;28;20178;-64
2021/04/27 09:38:18;;;;;;;4.80;2.60;;;19.10;70.00;;;;;;5072241;28;20249;-64
2021/04/27 09:41:05;;;;;;;6.18;2.80;;;19.10;70.20;;;;;;5056692;28;20569;-64
2021/04/27 09:43:34;;;;;;;3.37;2.70;;;18.80;66.10;;;;;;5051770;28;20261;-64
2021/04/27 09:46:03;;;;;;;5.32;2.70;;;18.20;66.90;;;;;;5052547;28;20203;-64
2021/04/27 09:48:46;;;;;;;4.20;2.85;;;18.20;69.30;;;;;;5052657;28;20392;-65
2021/04/27 09:51:14;;;;;;;3.55;2.60;;;18.50;65.60;;;;;;5052434;28;20195;-65
2021/04/27 09:53:51;;;;;;;2.80;2.30;;;18.70;69.80;;;;;;5052611;28;20167;-65
2021/04/27 09:56:38;;;;;;;3.72;2.30;;;19.20;71.20;;;;;;5052517;28;20182;-65
2021/04/27 09:59:10;;;;;;;5.30;2.45;;;19.00;64.40;;;;;;5052579;28;20163;-65
2021/04/27 10:01:36;;;;;;;5.35;3.10;;;19.20;65.50;;;;;;5051709;28;20183;-64
2021/04/27 10:04:02;;;;;;;6.05;2.30;;;19.30;67.10;;;;;;5052551;28;20194;-64
2021/04/27 10:06:29;;;;;;;4.88;2.28;;;19.30;67.20;;;;;;5052606;28;20217;-63
2021/04/27 10:08:56;;;;;;;4.28;2.50;;;19.60;66.00;;;;;;5052471;28;20178;-64
2021/04/27 10:11:26;;;;;;;4.00;3.00;;;19.80;63.80;;;;;;5052198;28;20178;-64
2021/04/27 10:13:52;;;;;;;3.90;2.65;;;20.20;64.50;;;;;;5051676;28;20856;-64
2021/04/27 10:16:18;;;;;;;2.97;2.65;;;20.70;64.00;;;;;;5052473;28;20670;-64
2021/04/27 10:18:44;;;;;;;5.95;2.63;;;21.10;64.60;;;;;;5052166;28;20261;-64
2021/04/27 10:21:11;;;;;;;4.03;2.55;;;21.10;61.20;;;;;;5052078;28;20274;-64
2021/04/27 10:23:41;;;;;;;3.13;2.72;;;21.50;60.10;;;;;;5051907;28;20182;-64
2021/04/27 10:26:08;;;;;;;2.90;2.60;;;21.60;63.40;;;;;;5050924;28;20205;-64
2021/04/27 10:29:00;;;;;;;3.63;2.38;;;22.00;62.60;;;;;;5051748;28;20536;-65
2021/04/27 10:31:27;;;;;;;3.60;2.85;;;22.40;62.50;;;;;;5051815;28;20266;-65
2021/04/27 10:33:59;;;;;;;6.13;2.70;;;22.40;60.50;;;;;;5051583;28;20178;-65
2021/04/27 10:36:26;;;;;;;4.00;2.90;;;22.00;61.20;;;;;;5051874;28;20531;-64
2021/04/27 10:38:57;;;;;;;3.58;2.65;;;21.80;58.00;;;;;;5051450;28;20179;-65
2021/04/27 10:41:42;;;;;;;3.08;2.58;;;21.60;57.70;;;;;;5050854;28;20652;-64
2021/04/27 10:44:08;;;;;;;4.75;2.67;;;21.90;57.70;;;;;;5050933;28;20186;-65
2021/04/27 10:46:35;;;;;;;5.65;2.80;;;21.80;59.70;;;;;;5051374;28;20191;-65
2021/04/27 10:49:09;;;;;;;3.67;2.80;;;21.50;57.10;;;;;;5052086;28;20668;-64
2021/04/27 10:51:38;;;;;;;5.45;2.80;;;21.10;59.50;;;;;;5051355;28;20182;-65
2021/04/27 10:54:09;;;;;;;4.15;2.80;;;21.10;56.10;;;;;;5051651;28;20177;-66
2021/04/27 10:57:19;;;;;;;3.63;2.78;;;21.00;55.70;;;;;;5051297;28;20175;-65
2021/04/27 10:59:48;;;;;;;3.70;2.63;;;20.70;56.90;;;;;;5038489;28;20235;-64
2021/04/27 11:02:23;;;;;;;11.93;3.13;;;20.90;60.40;;;;;;5051285;28;20232;-65
2021/04/27 11:04:53;;;;;;;3.92;2.70;;;21.60;59.40;;;;;;5051683;28;20181;-65
2021/04/27 11:07:19;;;;;;;5.93;2.97;;;22.10;56.30;;;;;;5051306;28;20205;-65
2021/04/27 11:10:04;;;;;;;4.68;2.75;;;22.00;56.90;;;;;;5050750;28;20203;-65
2021/04/27 11:12:33;;;;;;;3.70;2.92;;;22.30;60.00;;;;;;5051039;28;20533;-65
2021/04/27 11:15:08;;;;;;;3.85;2.80;;;22.80;57.10;;;;;;5051143;28;20495;-66
2021/04/27 11:17:54;;;;;;;3.63;2.92;;;23.80;58.20;;;;;;5051394;28;20212;-65
2021/04/27 11:20:42;;;;;;;5.55;2.80;;;25.00;57.90;;;;;;5050777;28;20194;-65
2021/04/27 11:23:08;;;;;;;5.07;2.85;;;25.70;57.00;;;;;;5051466;28;20183;-64
2021/04/27 11:25:34;;;;;;;3.80;2.80;;;25.70;54.40;;;;;;5050311;28;20163;-65
2021/04/27 11:28:01;;;;;;;5.93;2.55;;;25.40;55.70;;;;;;5051068;28;20233;-65
2021/04/27 11:30:34;;;;;;;4.60;3.15;;;25.50;55.10;;;;;;5050258;28;20210;-65
2021/04/27 11:33:05;;;;;;;5.05;2.67;;;25.60;56.50;;;;;;5051080;28;20171;-65
2021/04/27 11:35:43;;;;;;;3.97;2.70;;;25.80;55.20;;;;;;5051021;28;20174;-66
2021/04/27 11:38:09;;;;;;;3.20;2.60;;;26.10;54.40;;;;;;5049663;28;20179;-65
2021/04/27 11:40:38;;;;;;;5.28;2.60;;;25.60;50.50;;;;;;5039230;28;20590;-66
2021/04/27 11:43:12;;;;;;;3.22;2.92;;;25.00;49.90;;;;;;5041487;28;20183;-66
2021/04/27 11:45:43;;;;;;;3.40;2.47;;;24.60;50.80;;;;;;5029628;28;20550;-66
2021/04/27 11:48:12;;;;;;;3.10;2.80;;;24.80;52.60;;;;;;5038497;28;21103;-66
2021/04/27 11:50:37;;;;;;;2.85;2.55;;;25.00;49.80;;;;;;5051006;28;20660;-65
2021/04/27 11:53:08;;;;;;;2.80;2.47;;;24.70;51.40;;;;;;5051581;28;20175;-66
2021/04/27 11:55:41;;;;;;;3.45;2.90;;;23.90;48.60;;;;;;5050787;28;20167;-66
2021/04/27 11:58:16;;;;;;;3.55;2.83;;;23.50;51.30;;;;;;5050336;28;20652;-66
2021/04/27 12:00:59;;;;;;;3.90;3.17;;;23.50;51.20;;;;;;5051635;28;20202;-66
2021/04/27 12:03:40;;;;;;;4.57;3.10;;;23.50;49.50;;;;;;5051274;28;20171;-65
2021/04/27 12:06:05;;;;;;;6.05;2.78;;;23.80;50.90;;;;;;5050713;28;22133;-65
2021/04/27 12:08:34;;;;;;;7.22;3.42;;;24.10;48.40;;;;;;5051320;28;20285;-66
2021/04/27 12:11:18;;;;;;;3.40;2.97;;;23.80;49.80;;;;;;5050794;28;20194;-67
2021/04/27 12:13:51;;;;;;;3.42;2.72;;;23.90;49.80;;;;;;5050514;28;20175;-66
2021/04/27 12:16:22;;;;;;;3.20;2.80;;;24.00;50.60;;;;;;5050146;28;20725;-65
2021/04/27 12:19:02;;;;;;;3.63;2.63;;;24.30;50.60;;;;;;5051004;28;20273;-64
2021/04/27 12:21:34;;;;;;;3.90;3.03;;;24.50;49.90;;;;;;5049727;28;20651;-64
2021/04/27 12:24:04;;;;;;;4.22;3.20;;;24.30;51.20;;;;;;5050535;28;20210;-66
2021/04/27 12:26:30;;;;;;;3.53;2.80;;;24.60;48.50;;;;;;5050519;28;20753;-66
2021/04/27 12:28:59;;;;;;;3.38;2.63;;;24.70;49.90;;;;;;5050098;28;20187;-66
2021/04/27 12:31:29;;;;;;;3.67;3.35;;;24.80;48.90;;;;;;5049358;28;20206;-66
2021/04/27 12:34:00;;;;;;;4.07;2.95;;;24.70;49.10;;;;;;5050877;28;20216;-66
2021/04/27 12:36:39;;;;;;;3.25;2.83;;;25.00;49.80;;;;;;5052936;28;20589;-66
2021/04/27 12:39:09;;;;;;;4.05;2.75;;;25.30;48.60;;;;;;5045680;28;20516;-66
2021/04/27 12:41:39;;;;;;;3.53;3.05;;;25.60;51.90;;;;;;5053743;28;20174;-66
2021/04/27 12:44:42;;;;;;;2.90;2.60;;;25.80;48.80;;;;;;5052424;28;20193;-67
2021/04/27 12:47:14;;;;;;;4.55;3.03;;;25.70;48.90;;;;;;5049376;28;20209;-66
2021/04/27 12:49:40;;;;;;;4.40;3.13;;;25.40;45.00;;;;;;5054048;28;20229;-65
2021/04/27 12:52:12;;;;;;;4.05;2.50;;;25.20;46.00;;;;;;5053270;28;20232;-66
2021/04/27 12:54:39;;;;;;;3.42;2.80;;;25.00;47.30;;;;;;5053722;28;20183;-66
2021/04/27 12:57:10;;;;;;;6.38;3.25;;;24.20;49.40;;;;;;5054553;28;20329;-66